sensor_id;sensor_type;location;lat;lon;timestamp;P1;durP1;ratioP1;P2;durP2;ratioP2
7729;SDS011;3908;52.310;7.230;2022-09-13T00:00:23;13.27;;;7.97;;
7729;SDS011;3908;52.310;7.230;2022-09-13T00:03:12;10.47;;;7.53;;
7729;SDS011;3908;52.310;7.230;2022-09-13T00:06:05;8.73;;;6.23;;
7729;SDS011;3908;52.310;7.230;2022-09-13T00:08:53;9.47;;;6.73;;
7729;SDS011;3908;52.310;7.230;2022-09-13T00:11:40;9.13;;;7.50;;
7729;SDS011;3908;52.310;7.230;2022-09-13T00:14:27;10.97;;;7.67;;
7729;SDS011;3908;52.310;7.230;2022-09-13T00:17:14;9.43;;;7.33;;
7729;SDS011;3908;52.310;7.230;2022-09-13T00:20:03;9.67;;;7.27;;
7729;SDS011;3908;52.310;7.230;2022-09-13T00:22:51;9.83;;;7.00;;
7729;SDS011;3908;52.310;7.230;2022-09-13T00:25:38;8.93;;;7.40;;
7729;SDS011;3908;52.310;7.230;2022-09-13T00:28:25;12.80;;;8.27;;
7729;SDS011;3908;52.310;7.230;2022-09-13T00:31:12;9.93;;;7.57;;
7729;SDS011;3908;52.310;7.230;2022-09-13T00:33:59;10.57;;;8.10;;
7729;SDS011;3908;52.310;7.230;2022-09-13T00:36:48;9.60;;;7.13;;
7729;SDS011;3908;52.310;7.230;2022-09-13T00:39:35;14.60;;;8.13;;
7729;SDS011;3908;52.310;7.230;2022-09-13T00:42:23;8.60;;;6.93;;
7729;SDS011;3908;52.310;7.230;2022-09-13T00:45:15;9.00;;;6.93;;
7729;SDS011;3908;52.310;7.230;2022-09-13T00:48:03;8.83;;;7.10;;
7729;SDS011;3908;52.310;7.230;2022-09-13T00:50:54;10.50;;;7.47;;
7729;SDS011;3908;52.310;7.230;2022-09-13T00:53:43;9.80;;;7.37;;
7729;SDS011;3908;52.310;7.230;2022-09-13T00:56:38;9.27;;;7.00;;
7729;SDS011;3908;52.310;7.230;2022-09-13T00:59:29;11.90;;;7.03;;
7729;SDS011;3908;52.310;7.230;2022-09-13T01:02:25;10.53;;;7.97;;
7729;SDS011;3908;52.310;7.230;2022-09-13T01:05:14;9.50;;;7.40;;
7729;SDS011;3908;52.310;7.230;2022-09-13T01:08:04;9.07;;;7.60;;
7729;SDS011;3908;52.310;7.230;2022-09-13T01:10:58;9.17;;;7.53;;
7729;SDS011;3908;52.310;7.230;2022-09-13T01:13:46;10.43;;;7.63;;
7729;SDS011;3908;52.310;7.230;2022-09-13T01:16:35;10.80;;;8.17;;
7729;SDS011;3908;52.310;7.230;2022-09-13T01:19:22;11.37;;;8.00;;
7729;SDS011;3908;52.310;7.230;2022-09-13T01:22:16;11.30;;;8.03;;
7729;SDS011;3908;52.310;7.230;2022-09-13T01:29:02;14.30;;;9.23;;
7729;SDS011;3908;52.310;7.230;2022-09-13T01:32:03;14.33;;;9.43;;
7729;SDS011;3908;52.310;7.230;2022-09-13T01:34:58;10.13;;;7.87;;
7729;SDS011;3908;52.310;7.230;2022-09-13T01:37:53;13.03;;;9.60;;
7729;SDS011;3908;52.310;7.230;2022-09-13T01:40:50;13.07;;;9.50;;
7729;SDS011;3908;52.310;7.230;2022-09-13T01:43:50;10.70;;;8.83;;
7729;SDS011;3908;52.310;7.230;2022-09-13T01:46:44;14.03;;;9.83;;
7729;SDS011;3908;52.310;7.230;2022-09-13T01:49:37;10.90;;;7.90;;
7729;SDS011;3908;52.310;7.230;2022-09-13T01:52:33;12.43;;;9.17;;
7729;SDS011;3908;52.310;7.230;2022-09-13T01:55:29;12.47;;;8.73;;
7729;SDS011;3908;52.310;7.230;2022-09-13T01:58:21;9.50;;;6.87;;
7729;SDS011;3908;52.310;7.230;2022-09-13T02:01:14;11.90;;;8.57;;
7729;SDS011;3908;52.310;7.230;2022-09-13T02:04:04;11.13;;;8.33;;
7729;SDS011;3908;52.310;7.230;2022-09-13T02:06:59;11.83;;;9.60;;
7729;SDS011;3908;52.310;7.230;2022-09-13T02:09:49;16.60;;;8.07;;
7729;SDS011;3908;52.310;7.230;2022-09-13T02:12:41;14.10;;;8.87;;
7729;SDS011;3908;52.310;7.230;2022-09-13T02:15:31;11.83;;;8.80;;
7729;SDS011;3908;52.310;7.230;2022-09-13T02:18:23;16.87;;;10.03;;
7729;SDS011;3908;52.310;7.230;2022-09-13T02:21:16;10.27;;;8.60;;
7729;SDS011;3908;52.310;7.230;2022-09-13T02:24:10;14.77;;;9.60;;
7729;SDS011;3908;52.310;7.230;2022-09-13T02:27:02;13.53;;;9.33;;
7729;SDS011;3908;52.310;7.230;2022-09-13T02:29:54;10.97;;;7.50;;
7729;SDS011;3908;52.310;7.230;2022-09-13T02:32:44;12.40;;;8.83;;
7729;SDS011;3908;52.310;7.230;2022-09-13T02:35:39;12.20;;;8.67;;
7729;SDS011;3908;52.310;7.230;2022-09-13T02:38:31;10.03;;;7.77;;
7729;SDS011;3908;52.310;7.230;2022-09-13T02:41:27;10.77;;;8.30;;
7729;SDS011;3908;52.310;7.230;2022-09-13T02:44:21;11.63;;;7.83;;
7729;SDS011;3908;52.310;7.230;2022-09-13T02:47:18;14.63;;;9.07;;
7729;SDS011;3908;52.310;7.230;2022-09-13T02:50:26;31.93;;;8.87;;
7729;SDS011;3908;52.310;7.230;2022-09-13T02:53:24;12.20;;;8.13;;
7729;SDS011;3908;52.310;7.230;2022-09-13T02:56:16;12.17;;;8.73;;
7729;SDS011;3908;52.310;7.230;2022-09-13T02:59:12;12.30;;;7.83;;
7729;SDS011;3908;52.310;7.230;2022-09-13T03:02:02;12.90;;;8.53;;
7729;SDS011;3908;52.310;7.230;2022-09-13T03:04:52;10.27;;;7.50;;
7729;SDS011;3908;52.310;7.230;2022-09-13T03:07:40;10.87;;;8.60;;
7729;SDS011;3908;52.310;7.230;2022-09-13T03:10:27;12.53;;;8.57;;
7729;SDS011;3908;52.310;7.230;2022-09-13T03:13:31;12.93;;;9.33;;
7729;SDS011;3908;52.310;7.230;2022-09-13T03:16:32;12.23;;;8.27;;
7729;SDS011;3908;52.310;7.230;2022-09-13T03:19:34;13.10;;;7.80;;
7729;SDS011;3908;52.310;7.230;2022-09-13T03:22:48;13.30;;;8.67;;
7729;SDS011;3908;52.310;7.230;2022-09-13T03:25:59;13.37;;;8.57;;
7729;SDS011;3908;52.310;7.230;2022-09-13T03:29:05;12.00;;;8.40;;
7729;SDS011;3908;52.310;7.230;2022-09-13T03:32:05;13.07;;;9.40;;
7729;SDS011;3908;52.310;7.230;2022-09-13T03:35:03;13.37;;;8.93;;
7729;SDS011;3908;52.310;7.230;2022-09-13T03:37:59;13.93;;;8.97;;
7729;SDS011;3908;52.310;7.230;2022-09-13T03:40:51;10.43;;;8.67;;
7729;SDS011;3908;52.310;7.230;2022-09-13T03:43:43;12.63;;;8.57;;
7729;SDS011;3908;52.310;7.230;2022-09-13T03:46:35;13.33;;;9.90;;
7729;SDS011;3908;52.310;7.230;2022-09-13T03:49:26;10.77;;;8.30;;
7729;SDS011;3908;52.310;7.230;2022-09-13T03:52:15;10.87;;;8.30;;
7729;SDS011;3908;52.310;7.230;2022-09-13T03:55:03;12.33;;;7.57;;
7729;SDS011;3908;52.310;7.230;2022-09-13T03:57:50;15.07;;;11.30;;
7729;SDS011;3908;52.310;7.230;2022-09-13T04:00:40;15.80;;;10.35;;
7729;SDS011;3908;52.310;7.230;2022-09-13T04:03:27;10.83;;;8.13;;
7729;SDS011;3908;52.310;7.230;2022-09-13T04:06:15;12.50;;;9.30;;
7729;SDS011;3908;52.310;7.230;2022-09-13T04:09:02;10.93;;;8.07;;
7729;SDS011;3908;52.310;7.230;2022-09-13T04:11:49;10.83;;;8.63;;
7729;SDS011;3908;52.310;7.230;2022-09-13T04:14:36;11.60;;;9.53;;
7729;SDS011;3908;52.310;7.230;2022-09-13T04:17:23;15.70;;;8.63;;
7729;SDS011;3908;52.310;7.230;2022-09-13T04:20:10;13.83;;;9.83;;
7729;SDS011;3908;52.310;7.230;2022-09-13T04:22:59;11.93;;;8.60;;
7729;SDS011;3908;52.310;7.230;2022-09-13T04:25:46;13.10;;;9.53;;
7729;SDS011;3908;52.310;7.230;2022-09-13T04:28:33;15.13;;;10.20;;
7729;SDS011;3908;52.310;7.230;2022-09-13T04:31:20;14.67;;;10.83;;
7729;SDS011;3908;52.310;7.230;2022-09-13T04:34:07;15.37;;;10.17;;
7729;SDS011;3908;52.310;7.230;2022-09-13T04:36:54;14.20;;;10.20;;
7729;SDS011;3908;52.310;7.230;2022-09-13T04:39:42;14.37;;;9.90;;
7729;SDS011;3908;52.310;7.230;2022-09-13T04:42:29;17.70;;;11.57;;
7729;SDS011;3908;52.310;7.230;2022-09-13T04:45:16;15.80;;;12.10;;
7729;SDS011;3908;52.310;7.230;2022-09-13T04:48:03;15.77;;;11.13;;
7729;SDS011;3908;52.310;7.230;2022-09-13T04:50:50;17.73;;;12.60;;
7729;SDS011;3908;52.310;7.230;2022-09-13T04:53:37;17.83;;;12.07;;
7729;SDS011;3908;52.310;7.230;2022-09-13T04:56:26;16.47;;;11.30;;
7729;SDS011;3908;52.310;7.230;2022-09-13T04:59:13;14.67;;;11.30;;
7729;SDS011;3908;52.310;7.230;2022-09-13T05:02:00;14.23;;;10.80;;
7729;SDS011;3908;52.310;7.230;2022-09-13T05:04:47;19.80;;;11.97;;
7729;SDS011;3908;52.310;7.230;2022-09-13T05:07:34;16.03;;;11.93;;
7729;SDS011;3908;52.310;7.230;2022-09-13T05:10:21;16.07;;;11.23;;
7729;SDS011;3908;52.310;7.230;2022-09-13T05:13:10;23.33;;;15.00;;
7729;SDS011;3908;52.310;7.230;2022-09-13T05:15:57;21.27;;;13.70;;
7729;SDS011;3908;52.310;7.230;2022-09-13T05:18:46;20.10;;;13.67;;
7729;SDS011;3908;52.310;7.230;2022-09-13T05:21:33;19.83;;;13.17;;
7729;SDS011;3908;52.310;7.230;2022-09-13T05:24:20;22.13;;;13.90;;
7729;SDS011;3908;52.310;7.230;2022-09-13T05:27:07;21.90;;;13.60;;
7729;SDS011;3908;52.310;7.230;2022-09-13T05:29:57;17.73;;;13.20;;
7729;SDS011;3908;52.310;7.230;2022-09-13T05:32:44;19.13;;;12.70;;
7729;SDS011;3908;52.310;7.230;2022-09-13T05:35:31;23.07;;;14.40;;
7729;SDS011;3908;52.310;7.230;2022-09-13T05:38:18;18.73;;;12.67;;
7729;SDS011;3908;52.310;7.230;2022-09-13T05:41:05;21.00;;;14.27;;
7729;SDS011;3908;52.310;7.230;2022-09-13T05:43:52;24.30;;;14.07;;
7729;SDS011;3908;52.310;7.230;2022-09-13T05:46:41;22.00;;;13.47;;
7729;SDS011;3908;52.310;7.230;2022-09-13T05:49:31;22.53;;;13.77;;
7729;SDS011;3908;52.310;7.230;2022-09-13T05:52:18;20.00;;;13.00;;
7729;SDS011;3908;52.310;7.230;2022-09-13T05:55:05;20.10;;;13.93;;
7729;SDS011;3908;52.310;7.230;2022-09-13T05:57:54;23.10;;;13.03;;
7729;SDS011;3908;52.310;7.230;2022-09-13T06:00:41;19.73;;;13.20;;
7729;SDS011;3908;52.310;7.230;2022-09-13T06:03:29;23.27;;;15.10;;
7729;SDS011;3908;52.310;7.230;2022-09-13T06:06:16;26.80;;;17.40;;
7729;SDS011;3908;52.310;7.230;2022-09-13T06:09:04;25.50;;;17.40;;
7729;SDS011;3908;52.310;7.230;2022-09-13T06:11:52;25.37;;;16.97;;
7729;SDS011;3908;52.310;7.230;2022-09-13T06:14:39;23.37;;;16.37;;
7729;SDS011;3908;52.310;7.230;2022-09-13T06:17:26;27.27;;;18.03;;
7729;SDS011;3908;52.310;7.230;2022-09-13T06:20:15;28.93;;;18.47;;
7729;SDS011;3908;52.310;7.230;2022-09-13T06:23:02;26.03;;;17.97;;
7729;SDS011;3908;52.310;7.230;2022-09-13T06:25:49;30.63;;;17.80;;
7729;SDS011;3908;52.310;7.230;2022-09-13T06:28:36;27.77;;;18.23;;
7729;SDS011;3908;52.310;7.230;2022-09-13T06:31:25;28.37;;;18.87;;
7729;SDS011;3908;52.310;7.230;2022-09-13T06:34:13;29.47;;;19.70;;
7729;SDS011;3908;52.310;7.230;2022-09-13T06:37:03;33.03;;;21.27;;
7729;SDS011;3908;52.310;7.230;2022-09-13T06:39:50;31.07;;;21.13;;
7729;SDS011;3908;52.310;7.230;2022-09-13T06:42:37;31.87;;;20.07;;
7729;SDS011;3908;52.310;7.230;2022-09-13T06:45:24;27.23;;;18.00;;
7729;SDS011;3908;52.310;7.230;2022-09-13T06:48:11;28.60;;;18.50;;
7729;SDS011;3908;52.310;7.230;2022-09-13T06:50:58;30.67;;;18.73;;
7729;SDS011;3908;52.310;7.230;2022-09-13T06:53:47;29.00;;;18.73;;
7729;SDS011;3908;52.310;7.230;2022-09-13T06:56:36;25.57;;;17.03;;
7729;SDS011;3908;52.310;7.230;2022-09-13T06:59:24;34.00;;;21.57;;
7729;SDS011;3908;52.310;7.230;2022-09-13T07:02:11;28.50;;;18.77;;
7729;SDS011;3908;52.310;7.230;2022-09-13T07:04:58;25.53;;;17.20;;
7729;SDS011;3908;52.310;7.230;2022-09-13T07:07:45;25.57;;;17.33;;
7729;SDS011;3908;52.310;7.230;2022-09-13T07:10:34;27.90;;;19.13;;
7729;SDS011;3908;52.310;7.230;2022-09-13T07:13:21;23.83;;;17.07;;
7729;SDS011;3908;52.310;7.230;2022-09-13T07:16:08;28.13;;;17.90;;
7729;SDS011;3908;52.310;7.230;2022-09-13T07:18:57;26.60;;;17.20;;
7729;SDS011;3908;52.310;7.230;2022-09-13T07:21:45;24.98;;;18.05;;
7729;SDS011;3908;52.310;7.230;2022-09-13T07:24:34;28.97;;;19.57;;
7729;SDS011;3908;52.310;7.230;2022-09-13T07:27:22;28.87;;;18.30;;
7729;SDS011;3908;52.310;7.230;2022-09-13T07:30:09;29.33;;;19.27;;
7729;SDS011;3908;52.310;7.230;2022-09-13T07:32:56;25.73;;;17.57;;
7729;SDS011;3908;52.310;7.230;2022-09-13T07:35:43;30.80;;;19.85;;
7729;SDS011;3908;52.310;7.230;2022-09-13T07:38:31;26.42;;;19.52;;
7729;SDS011;3908;52.310;7.230;2022-09-13T07:41:19;26.27;;;18.88;;
7729;SDS011;3908;52.310;7.230;2022-09-13T07:44:09;28.93;;;18.87;;
7729;SDS011;3908;52.310;7.230;2022-09-13T07:46:57;30.83;;;19.80;;
7729;SDS011;3908;52.310;7.230;2022-09-13T07:49:44;26.70;;;18.42;;
7729;SDS011;3908;52.310;7.230;2022-09-13T07:52:31;29.90;;;18.80;;
7729;SDS011;3908;52.310;7.230;2022-09-13T07:55:22;25.30;;;17.73;;
7729;SDS011;3908;52.310;7.230;2022-09-13T07:58:09;28.02;;;18.73;;
7729;SDS011;3908;52.310;7.230;2022-09-13T08:00:59;23.38;;;14.00;;
7729;SDS011;3908;52.310;7.230;2022-09-13T08:03:51;20.55;;;14.40;;
7729;SDS011;3908;52.310;7.230;2022-09-13T08:06:40;21.10;;;13.90;;
7729;SDS011;3908;52.310;7.230;2022-09-13T08:09:28;22.30;;;14.00;;
7729;SDS011;3908;52.310;7.230;2022-09-13T08:12:16;26.55;;;14.88;;
7729;SDS011;3908;52.310;7.230;2022-09-13T08:15:03;31.10;;;16.63;;
7729;SDS011;3908;52.310;7.230;2022-09-13T08:17:53;29.55;;;17.52;;
7729;SDS011;3908;52.310;7.230;2022-09-13T08:20:40;26.67;;;16.88;;
7729;SDS011;3908;52.310;7.230;2022-09-13T08:23:27;25.55;;;16.45;;
7729;SDS011;3908;52.310;7.230;2022-09-13T08:26:15;23.03;;;15.07;;
7729;SDS011;3908;52.310;7.230;2022-09-13T08:29:03;29.43;;;15.70;;
7729;SDS011;3908;52.310;7.230;2022-09-13T08:31:51;20.77;;;14.70;;
7729;SDS011;3908;52.310;7.230;2022-09-13T08:34:40;20.17;;;13.57;;
7729;SDS011;3908;52.310;7.230;2022-09-13T08:37:27;26.10;;;16.00;;
7729;SDS011;3908;52.310;7.230;2022-09-13T08:40:18;23.65;;;13.88;;
7729;SDS011;3908;52.310;7.230;2022-09-13T08:43:08;25.58;;;14.88;;
7729;SDS011;3908;52.310;7.230;2022-09-13T08:46:08;22.02;;;14.48;;
7729;SDS011;3908;52.310;7.230;2022-09-13T08:49:04;22.02;;;12.73;;
7729;SDS011;3908;52.310;7.230;2022-09-13T08:51:55;18.42;;;11.50;;
7729;SDS011;3908;52.310;7.230;2022-09-13T08:54:48;19.95;;;12.65;;
7729;SDS011;3908;52.310;7.230;2022-09-13T08:57:39;18.85;;;11.30;;
7729;SDS011;3908;52.310;7.230;2022-09-13T09:00:34;15.40;;;10.50;;
7729;SDS011;3908;52.310;7.230;2022-09-13T09:03:30;15.63;;;9.35;;
7729;SDS011;3908;52.310;7.230;2022-09-13T09:06:26;13.00;;;8.90;;
7729;SDS011;3908;52.310;7.230;2022-09-13T09:09:16;17.65;;;8.32;;
7729;SDS011;3908;52.310;7.230;2022-09-13T09:12:13;12.77;;;8.45;;
7729;SDS011;3908;52.310;7.230;2022-09-13T09:15:08;13.40;;;8.18;;
7729;SDS011;3908;52.310;7.230;2022-09-13T09:18:02;12.52;;;8.13;;
7729;SDS011;3908;52.310;7.230;2022-09-13T09:20:57;11.68;;;7.53;;
7729;SDS011;3908;52.310;7.230;2022-09-13T09:23:47;11.70;;;8.05;;
7729;SDS011;3908;52.310;7.230;2022-09-13T09:26:40;11.60;;;7.28;;
7729;SDS011;3908;52.310;7.230;2022-09-13T09:29:27;13.05;;;7.15;;
7729;SDS011;3908;52.310;7.230;2022-09-13T09:32:23;10.85;;;7.03;;
7729;SDS011;3908;52.310;7.230;2022-09-13T09:35:27;15.38;;;7.88;;
7729;SDS011;3908;52.310;7.230;2022-09-13T09:38:28;14.80;;;7.68;;
7729;SDS011;3908;52.310;7.230;2022-09-13T09:41:24;10.63;;;7.18;;
7729;SDS011;3908;52.310;7.230;2022-09-13T09:44:17;11.07;;;7.50;;
7729;SDS011;3908;52.310;7.230;2022-09-13T09:47:09;15.95;;;7.05;;
7729;SDS011;3908;52.310;7.230;2022-09-13T09:50:02;11.15;;;6.78;;
7729;SDS011;3908;52.310;7.230;2022-09-13T09:52:58;7.60;;;5.38;;
7729;SDS011;3908;52.310;7.230;2022-09-13T09:55:54;12.15;;;6.35;;
7729;SDS011;3908;52.310;7.230;2022-09-13T09:58:45;6.30;;;5.05;;
7729;SDS011;3908;52.310;7.230;2022-09-13T10:01:34;7.93;;;5.63;;
7729;SDS011;3908;52.310;7.230;2022-09-13T10:04:24;7.75;;;5.20;;
7729;SDS011;3908;52.310;7.230;2022-09-13T10:07:18;9.32;;;5.65;;
7729;SDS011;3908;52.310;7.230;2022-09-13T10:10:18;8.90;;;5.55;;
7729;SDS011;3908;52.310;7.230;2022-09-13T10:13:12;6.60;;;5.45;;
7729;SDS011;3908;52.310;7.230;2022-09-13T10:16:03;7.80;;;4.97;;
7729;SDS011;3908;52.310;7.230;2022-09-13T10:18:53;6.20;;;3.92;;
7729;SDS011;3908;52.310;7.230;2022-09-13T10:21:40;7.70;;;4.25;;
7729;SDS011;3908;52.310;7.230;2022-09-13T10:24:27;6.18;;;3.70;;
7729;SDS011;3908;52.310;7.230;2022-09-13T10:27:25;5.82;;;4.28;;
7729;SDS011;3908;52.310;7.230;2022-09-13T10:30:25;9.20;;;3.70;;
7729;SDS011;3908;52.310;7.230;2022-09-13T10:33:21;4.07;;;3.00;;
7729;SDS011;3908;52.310;7.230;2022-09-13T10:36:15;5.05;;;3.10;;
7729;SDS011;3908;52.310;7.230;2022-09-13T10:39:05;4.95;;;2.50;;
7729;SDS011;3908;52.310;7.230;2022-09-13T10:42:02;4.82;;;3.10;;
7729;SDS011;3908;52.310;7.230;2022-09-13T10:44:52;5.82;;;2.30;;
7729;SDS011;3908;52.310;7.230;2022-09-13T10:47:43;2.22;;;1.70;;
7729;SDS011;3908;52.310;7.230;2022-09-13T10:50:32;2.70;;;1.85;;
7729;SDS011;3908;52.310;7.230;2022-09-13T10:53:31;3.50;;;1.90;;
7729;SDS011;3908;52.310;7.230;2022-09-13T10:56:21;2.67;;;1.50;;
7729;SDS011;3908;52.310;7.230;2022-09-13T10:59:15;5.40;;;1.85;;
7729;SDS011;3908;52.310;7.230;2022-09-13T11:02:18;2.10;;;1.50;;
7729;SDS011;3908;52.310;7.230;2022-09-13T11:05:23;3.67;;;1.42;;
7729;SDS011;3908;52.310;7.230;2022-09-13T11:08:15;4.75;;;1.40;;
7729;SDS011;3908;52.310;7.230;2022-09-13T11:11:22;2.35;;;1.40;;
7729;SDS011;3908;52.310;7.230;2022-09-13T11:14:20;2.97;;;1.40;;
7729;SDS011;3908;52.310;7.230;2022-09-13T11:17:24;3.25;;;1.67;;
7729;SDS011;3908;52.310;7.230;2022-09-13T11:20:23;1.17;;;1.08;;
7729;SDS011;3908;52.310;7.230;2022-09-13T11:23:26;3.33;;;1.33;;
7729;SDS011;3908;52.310;7.230;2022-09-13T11:26:41;2.30;;;1.02;;
7729;SDS011;3908;52.310;7.230;2022-09-13T11:29:47;1.20;;;1.10;;
7729;SDS011;3908;52.310;7.230;2022-09-13T11:32:51;2.30;;;1.17;;
7729;SDS011;3908;52.310;7.230;2022-09-13T11:35:53;6.72;;;1.42;;
7729;SDS011;3908;52.310;7.230;2022-09-13T11:38:57;3.85;;;1.20;;
7729;SDS011;3908;52.310;7.230;2022-09-13T11:41:55;2.85;;;1.27;;
7729;SDS011;3908;52.310;7.230;2022-09-13T11:44:54;1.67;;;1.02;;
7729;SDS011;3908;52.310;7.230;2022-09-13T11:48:01;1.75;;;0.80;;
7729;SDS011;3908;52.310;7.230;2022-09-13T11:51:00;2.80;;;1.10;;
7729;SDS011;3908;52.310;7.230;2022-09-13T11:54:11;2.90;;;0.90;;
7729;SDS011;3908;52.310;7.230;2022-09-13T11:57:11;6.47;;;0.82;;
7729;SDS011;3908;52.310;7.230;2022-09-13T12:00:03;2.95;;;0.90;;
7729;SDS011;3908;52.310;7.230;2022-09-13T12:02:56;3.15;;;1.00;;
7729;SDS011;3908;52.310;7.230;2022-09-13T12:05:50;1.85;;;0.80;;
7729;SDS011;3908;52.310;7.230;2022-09-13T12:08:43;4.75;;;0.98;;
7729;SDS011;3908;52.310;7.230;2022-09-13T12:11:35;2.10;;;0.90;;
7729;SDS011;3908;52.310;7.230;2022-09-13T12:14:28;2.90;;;1.02;;
7729;SDS011;3908;52.310;7.230;2022-09-13T12:17:22;1.90;;;0.85;;
7729;SDS011;3908;52.310;7.230;2022-09-13T12:20:14;2.30;;;0.80;;
7729;SDS011;3908;52.310;7.230;2022-09-13T12:23:06;4.28;;;1.02;;
7729;SDS011;3908;52.310;7.230;2022-09-13T12:26:02;2.53;;;0.90;;
7729;SDS011;3908;52.310;7.230;2022-09-13T12:28:56;2.40;;;0.98;;
7729;SDS011;3908;52.310;7.230;2022-09-13T12:31:48;3.10;;;1.10;;
7729;SDS011;3908;52.310;7.230;2022-09-13T12:34:37;4.32;;;1.08;;
7729;SDS011;3908;52.310;7.230;2022-09-13T12:37:43;2.83;;;0.93;;
7729;SDS011;3908;52.310;7.230;2022-09-13T12:40:53;1.60;;;0.90;;
7729;SDS011;3908;52.310;7.230;2022-09-13T12:43:54;2.53;;;0.90;;
7729;SDS011;3908;52.310;7.230;2022-09-13T12:47:09;5.28;;;1.13;;
7729;SDS011;3908;52.310;7.230;2022-09-13T12:50:25;1.23;;;0.70;;
7729;SDS011;3908;52.310;7.230;2022-09-13T12:53:36;2.53;;;1.00;;
7729;SDS011;3908;52.310;7.230;2022-09-13T12:56:46;3.75;;;1.00;;
7729;SDS011;3908;52.310;7.230;2022-09-13T12:59:56;3.38;;;1.10;;
7729;SDS011;3908;52.310;7.230;2022-09-13T13:03:00;4.13;;;1.10;;
7729;SDS011;3908;52.310;7.230;2022-09-13T13:06:04;2.85;;;0.98;;
7729;SDS011;3908;52.310;7.230;2022-09-13T13:08:56;2.03;;;1.05;;
7729;SDS011;3908;52.310;7.230;2022-09-13T13:11:45;3.45;;;1.50;;
7729;SDS011;3908;52.310;7.230;2022-09-13T13:14:44;2.88;;;1.00;;
7729;SDS011;3908;52.310;7.230;2022-09-13T13:17:43;3.80;;;1.00;;
7729;SDS011;3908;52.310;7.230;2022-09-13T13:20:46;1.98;;;0.70;;
7729;SDS011;3908;52.310;7.230;2022-09-13T13:30:40;2.03;;;0.90;;
7729;SDS011;3908;52.310;7.230;2022-09-13T13:33:46;2.95;;;1.08;;
7729;SDS011;3908;52.310;7.230;2022-09-13T13:36:42;5.15;;;1.05;;
7729;SDS011;3908;52.310;7.230;2022-09-13T13:39:33;2.70;;;0.80;;
7729;SDS011;3908;52.310;7.230;2022-09-13T13:42:25;2.58;;;1.23;;
7729;SDS011;3908;52.310;7.230;2022-09-13T13:45:21;6.80;;;1.20;;
7729;SDS011;3908;52.310;7.230;2022-09-13T13:48:12;3.65;;;1.10;;
7729;SDS011;3908;52.310;7.230;2022-09-13T13:51:33;4.45;;;1.00;;
7729;SDS011;3908;52.310;7.230;2022-09-13T13:54:30;4.57;;;1.20;;
7729;SDS011;3908;52.310;7.230;2022-09-13T13:57:42;3.22;;;1.02;;
7729;SDS011;3908;52.310;7.230;2022-09-13T14:00:44;3.00;;;0.95;;
7729;SDS011;3908;52.310;7.230;2022-09-13T14:03:46;4.03;;;0.93;;
7729;SDS011;3908;52.310;7.230;2022-09-13T14:06:43;2.88;;;0.93;;
7729;SDS011;3908;52.310;7.230;2022-09-13T14:09:43;2.30;;;0.80;;
7729;SDS011;3908;52.310;7.230;2022-09-13T14:12:43;4.80;;;0.90;;
7729;SDS011;3908;52.310;7.230;2022-09-13T14:15:44;4.45;;;1.02;;
7729;SDS011;3908;52.310;7.230;2022-09-13T14:22:14;1.80;;;0.77;;
7729;SDS011;3908;52.310;7.230;2022-09-13T14:25:12;1.75;;;0.93;;
7729;SDS011;3908;52.310;7.230;2022-09-13T14:28:08;5.32;;;1.52;;
7729;SDS011;3908;52.310;7.230;2022-09-13T14:30:59;1.55;;;0.80;;
7729;SDS011;3908;52.310;7.230;2022-09-13T14:33:46;2.10;;;1.20;;
7729;SDS011;3908;52.310;7.230;2022-09-13T14:36:34;1.83;;;0.75;;
7729;SDS011;3908;52.310;7.230;2022-09-13T14:39:23;3.65;;;1.63;;
7729;SDS011;3908;52.310;7.230;2022-09-13T14:42:12;1.10;;;0.80;;
7729;SDS011;3908;52.310;7.230;2022-09-13T14:45:00;4.65;;;1.13;;
7729;SDS011;3908;52.310;7.230;2022-09-13T14:47:49;5.03;;;0.98;;
7729;SDS011;3908;52.310;7.230;2022-09-13T14:50:41;2.80;;;0.77;;
7729;SDS011;3908;52.310;7.230;2022-09-13T14:53:34;2.92;;;0.68;;
7729;SDS011;3908;52.310;7.230;2022-09-13T14:56:27;3.28;;;1.02;;
7729;SDS011;3908;52.310;7.230;2022-09-13T14:59:20;3.50;;;1.20;;
7729;SDS011;3908;52.310;7.230;2022-09-13T15:02:15;5.90;;;0.90;;
7729;SDS011;3908;52.310;7.230;2022-09-13T15:05:10;3.03;;;1.05;;
7729;SDS011;3908;52.310;7.230;2022-09-13T15:11:32;1.30;;;1.17;;
7729;SDS011;3908;52.310;7.230;2022-09-13T15:14:22;5.35;;;1.35;;
7729;SDS011;3908;52.310;7.230;2022-09-13T15:17:13;3.15;;;0.80;;
7729;SDS011;3908;52.310;7.230;2022-09-13T15:20:02;1.33;;;0.70;;
7729;SDS011;3908;52.310;7.230;2022-09-13T15:22:51;5.30;;;1.77;;
7729;SDS011;3908;52.310;7.230;2022-09-13T15:25:38;4.03;;;0.82;;
7729;SDS011;3908;52.310;7.230;2022-09-13T15:28:27;6.10;;;1.60;;
7729;SDS011;3908;52.310;7.230;2022-09-13T15:31:18;1.67;;;0.80;;
7729;SDS011;3908;52.310;7.230;2022-09-13T15:34:09;2.13;;;1.10;;
7729;SDS011;3908;52.310;7.230;2022-09-13T15:37:05;2.53;;;1.20;;
7729;SDS011;3908;52.310;7.230;2022-09-13T15:40:09;2.22;;;1.10;;
7729;SDS011;3908;52.310;7.230;2022-09-13T15:43:00;2.63;;;0.90;;
7729;SDS011;3908;52.310;7.230;2022-09-13T15:45:49;3.00;;;0.90;;
7729;SDS011;3908;52.310;7.230;2022-09-13T15:48:36;2.50;;;0.90;;
7729;SDS011;3908;52.310;7.230;2022-09-13T15:51:23;2.42;;;0.93;;
7729;SDS011;3908;52.310;7.230;2022-09-13T15:54:11;3.72;;;0.90;;
7729;SDS011;3908;52.310;7.230;2022-09-13T15:57:03;3.65;;;1.10;;
7729;SDS011;3908;52.310;7.230;2022-09-13T15:59:52;1.05;;;0.80;;
7729;SDS011;3908;52.310;7.230;2022-09-13T16:02:42;8.25;;;1.20;;
7729;SDS011;3908;52.310;7.230;2022-09-13T16:05:29;0.88;;;0.80;;
7729;SDS011;3908;52.310;7.230;2022-09-13T16:08:16;2.85;;;1.13;;
7729;SDS011;3908;52.310;7.230;2022-09-13T16:11:03;3.83;;;1.10;;
7729;SDS011;3908;52.310;7.230;2022-09-13T16:13:50;3.03;;;1.05;;
7729;SDS011;3908;52.310;7.230;2022-09-13T16:16:37;1.85;;;0.90;;
7729;SDS011;3908;52.310;7.230;2022-09-13T16:19:26;4.85;;;1.20;;
7729;SDS011;3908;52.310;7.230;2022-09-13T16:22:13;3.70;;;0.98;;
7729;SDS011;3908;52.310;7.230;2022-09-13T16:25:01;2.45;;;0.85;;
7729;SDS011;3908;52.310;7.230;2022-09-13T16:27:48;2.25;;;0.80;;
7729;SDS011;3908;52.310;7.230;2022-09-13T16:30:37;1.20;;;0.90;;
7729;SDS011;3908;52.310;7.230;2022-09-13T16:33:24;4.07;;;1.00;;
7729;SDS011;3908;52.310;7.230;2022-09-13T16:36:13;3.72;;;0.88;;
7729;SDS011;3908;52.310;7.230;2022-09-13T16:39:00;2.17;;;0.75;;
7729;SDS011;3908;52.310;7.230;2022-09-13T16:41:47;2.28;;;1.20;;
7729;SDS011;3908;52.310;7.230;2022-09-13T16:44:34;5.88;;;1.17;;
7729;SDS011;3908;52.310;7.230;2022-09-13T16:47:21;3.58;;;1.10;;
7729;SDS011;3908;52.310;7.230;2022-09-13T16:50:08;1.92;;;0.80;;
7729;SDS011;3908;52.310;7.230;2022-09-13T16:52:57;2.10;;;0.80;;
7729;SDS011;3908;52.310;7.230;2022-09-13T16:55:45;6.93;;;1.02;;
7729;SDS011;3908;52.310;7.230;2022-09-13T16:58:34;3.95;;;0.98;;
7729;SDS011;3908;52.310;7.230;2022-09-13T17:01:22;2.28;;;0.80;;
7729;SDS011;3908;52.310;7.230;2022-09-13T17:04:11;1.42;;;0.93;;
7729;SDS011;3908;52.310;7.230;2022-09-13T17:06:58;2.67;;;1.08;;
7729;SDS011;3908;52.310;7.230;2022-09-13T17:09:47;4.63;;;0.90;;
7729;SDS011;3908;52.310;7.230;2022-09-13T17:12:35;2.22;;;0.93;;
7729;SDS011;3908;52.310;7.230;2022-09-13T17:15:22;2.88;;;1.02;;
7729;SDS011;3908;52.310;7.230;2022-09-13T17:18:09;4.20;;;1.00;;
7729;SDS011;3908;52.310;7.230;2022-09-13T17:20:56;3.92;;;0.90;;
7729;SDS011;3908;52.310;7.230;2022-09-13T17:23:44;3.22;;;1.10;;
7729;SDS011;3908;52.310;7.230;2022-09-13T17:26:33;2.85;;;1.48;;
7729;SDS011;3908;52.310;7.230;2022-09-13T17:29:20;2.88;;;1.08;;
7729;SDS011;3908;52.310;7.230;2022-09-13T17:32:07;1.60;;;0.95;;
7729;SDS011;3908;52.310;7.230;2022-09-13T17:34:54;2.40;;;1.15;;
7729;SDS011;3908;52.310;7.230;2022-09-13T17:37:41;5.82;;;1.10;;
7729;SDS011;3908;52.310;7.230;2022-09-13T17:40:28;8.45;;;1.20;;
7729;SDS011;3908;52.310;7.230;2022-09-13T17:43:17;5.47;;;1.23;;
7729;SDS011;3908;52.310;7.230;2022-09-13T17:46:04;4.88;;;1.45;;
7729;SDS011;3908;52.310;7.230;2022-09-13T17:48:53;4.03;;;1.23;;
7729;SDS011;3908;52.310;7.230;2022-09-13T17:51:41;4.32;;;1.00;;
7729;SDS011;3908;52.310;7.230;2022-09-13T17:54:28;5.70;;;1.17;;